INFORMAÇÕES DO AERODROMO
Icao Aerodromo SBTA Nome do Aerodromo Base de Aviação de Taubaté Airport Cidade Taubaté
Código GPS SBTA Elevação Média 1908 ft Tipo de Aerodromo Aeroporto Médio Porte

INFORMAÇÃO DE PISTA
Pista 8 Comprimento da Pista 112 ft Largura da Pista 112 ft
Elevação da Pista 0 ft Distância de Area de Escape da Pista 0 ft Orientação da Pista 0
Pista 26 Comprimento da Pista 112 ft Largura da Pista 112 ft
Elevação da Pista 0 ft Distância de Area de Escape da Pista 0 ft Orientação da Pista 0

FREQUÊNCIAS DO AERODROMO
Tipo GND Nome GND Frequência 121.7 MHZ
Tipo TWR Nome TWR Frequência 119.9 MHZ

INFORMAÇÕES DE NAVEGAÇÃO PRÓXIMO AO AERODROMO
Tipo NDB Nome Taubate Frequência 430 KHZ

Informações de Meteorologia(METAR atual)
METAR DE SBTA
ADDS - METARS form results

(1424 UTC 12 December 2018)
Data provider http://aviationweather.gov/metar/data/
 
METAR text: SBTA 121400Z 19003KT 9999 FEW025 30/16 Q1019
Conditions at: SBTA (TAUBATE (BASE) , BR) observed 1400 UTC 12 December 2018
Temperature: 30.0°C (86°F)
Dewpoint: 16.0°C (61°F) [RH = 43%]
Pressure (altimeter): 30.09 inches Hg (1019.0 mb)
Winds: from the S (190 degrees) at 3 MPH (3 knots; 1.5 m/s)
Visibility: 6 or more miles (10+ km)
Ceiling: at least 12,000 feet AGL
Clouds: few clouds at 2500 feet AGL
Weather: no significant weather observed at this time

MAPA DO AERODROMO


Desenvolvido por Virtual Airlines Manager




Modificado por Servidor Brasil Amigos